Council Bluffs, Iowa
Current Conditions -  °F | °C
As of 8:52 PM on Friday 28 Nov 2014 (Local Time) from KOMA Reporting Station
Overcast Overcast  
Wind Chill: 31°   Ceiling: 25000
Heat Index: 39°   Visibility: 10mi
Dew Point: 31°   Wind: 13mph
Humidity: 73%   Direction: 150°SSE
Pressure: 29.63"   Gusts: NA
Location:  41.26°N, 95.85°W
Report Text: KOMA 290252Z 15011KT 10SM OVC250 04/M01 A2963 RMK AO2 SLP042 T00391006 56020
Loading
Personal Weather Stations






























Interactive Weather Map New forecast layout! Learn more

10-Day Weather Forecast

Advertisements
Track Severe Weather on mobile